Jolon, CA (93928)

6:19 PM PST on February 11, 2016 (GMT -0800)
Davis Canyon / Argyle | | Change Station
CLOSE
Current Station
Personal Weather Station
Location: Jolon, CA
Elevation: 1179 ft
Nearby Weather Stations

Elev 1179 ft 35.99 °N, 121.13 °W | Updated 19 seconds ago

Partly Cloudy
Partly Cloudy
58.5 °F
Feels Like 58.5 °F
N
0.0
Wind Variable Wind from ENE
Gusts 0.0 mph

Today
High -- | Low -- °F
--% Chance of Precip.
Yesterday
High -- | Low -- °F
Precip. -- in
Pressure 30.11 in
Visibility 10.0 miles
Clouds Clear
Dew Point 50 °F
Humidity 73%
Rainfall 0.00 in
Snow Depth Not available.
6:56 AM 5:41 PM
Waxing Crescent, 16% visible
METAR KPRB 120153Z AUTO 00000KT 10SM CLR 21/11 A3011 RMK AO2 SLP196 T02060111 TSNO
Pressure 30.11 in
Visibility 10.0 miles
Clouds Clear
Dew Point 50 °F
Humidity 73%
Rainfall 0.00 in
Snow Depth Not available.
6:56 AM 5:41 PM
Waxing Crescent, 16% visible
METAR KPRB 120153Z AUTO 00000KT 10SM CLR 21/11 A3011 RMK AO2 SLP196 T02060111 TSNO

10-Day Weather Forecast

Almanac

Astronomy

Feb. 11, 2016 Rise Set
Actual Time
Civil Twilight
Nautical Twilight
Astronomical Twilight
Moon
Length of Visible Light
Length of Day
Tomorrow will be .
, % of the Moon is Illuminated

Today's Extremes

State Highs State Lows

Community

WunderPhotos

Upload Photos

1,892,225 photos uploaded!

WunderBlog® & News

Nearby

Air Quality

  Air Quality AQ Index Pollutant
Not available.

Snow Depth

Station Depth Elevation

Earthquake Activity

City Distance Mag. Time & Date
Minimum magnitude displayed is 2.5.

Coastal Water Temperatures

Place Temperature

Stations

Nearby Weather Stations

Station Location Temp. Windchill Dew Point Humidity Wind Precip. Elev Updated Type
                   

Watches & Warnings

There are currently no watches in effect.